Airfield :
LOGIN :

Register | Disclaimer

   EN    FR    IT 

 










Legend :    VFR   Marginal VFR   IFR   Intensive IFR   Very Intensive IFR
Visi :
Ceiling :
>= 8 km
>= 3000ft
5 to 8 km
1000 to 3000 ft
1500m to 5 km
500 to 1000 ft
800 to 1500m
200 to 500 ft
< 800m
< 200 ft
Symbols :   Thunderstorms  Fog  Heavy snow  Heavy precipitations  Wind > 20 kt
SIGMETs :     Misc.  Thunderstorms  Icing  Turbulence  Mountain Waves  Volcanic Ashes






- Airport Elevation : 302 ft
- IATA code : MAH


LEMH - Menorca

CURRENT METAR :
  • 120530Z 02004KT CAVOK 24/19 Q1014

EXPIRED METARs :
  • 120500Z 00000KT CAVOK 24/19 Q1014
  • 120430Z VRB02KT CAVOK 25/19 Q1014
  • 120400Z VRB01KT CAVOK 25/19 Q1014
  • 120330Z AUTO 12006KT 090V150 CAVOK 26/19 Q1014

TAF AMD TAF LEMH
Valid from the 12 at 04:00 until the 13 at 03:00 UTC


120406Z 1204/1303 09012KT 9999 FEW030 TX31/1215Z TN22/1205Z
TEMPO 1210/1215 FEW030CB
TEMPO 1204/1209 VRB03KT
BECMG 1209/1211 04010KT
PROB30
TEMPO 1211/1215 08020G30KT 4000 TSRA SCT030CB BKN040
BECMG 1215/1217 VRB04KT



MET'MAP, your aeronautical weather chart ! - Copyright ORBIFLY December 2007 - Disclaimer

ORBIFLY MET'MAP TEAM :

Programming & Development : Alexandra Zaïnal
Concept & original design : Baudouin d'Aumeries
Assistance for programming : Marc-Olivier Méhu
Technical & hardware support : Manuel Goepfert

Contact : metmap@orbifly.com




SOURCES & CREDITS :

   NOAA